Time;durP1;ratioP1;P1;durP2;ratioP2;P2;SDS_P1;SDS_P2;PMS_P1;PMS_P2;Temp;Humidity;BMP_temperature;BMP_pressure;BME280_temperature;BME280_humidity;BME280_pressure;Samples;Min_cycle;Max_cycle;Signal;HPM_P1;HPM_P2
2021/03/27 00:00:01;;;;;;;19.75;11.45;;;8.40;88.20;;;;;;5035040;28;20041;-74
2021/03/27 00:02:36;;;;;;;16.55;11.23;;;8.50;88.40;;;;;;5045436;28;20029;-74
2021/03/27 00:05:13;;;;;;;17.25;12.50;;;8.50;88.20;;;;;;5035367;28;20474;-74
2021/03/27 00:07:51;;;;;;;19.38;12.18;;;8.60;88.20;;;;;;5034008;28;20049;-73
2021/03/27 00:10:26;;;;;;;18.63;13.10;;;8.70;87.50;;;;;;5035164;28;20034;-73
2021/03/27 00:13:25;;;;;;;17.95;11.23;;;8.70;87.40;;;;;;5035298;28;20033;-73
2021/03/27 00:16:18;;;;;;;17.45;12.98;;;8.80;87.40;;;;;;5035208;28;20036;-73
2021/03/27 00:19:10;;;;;;;15.35;10.80;;;9.00;86.80;;;;;;5034722;28;20049;-73
2021/03/27 00:21:39;;;;;;;14.98;9.13;;;9.20;85.90;;;;;;5034395;28;20029;-73
2021/03/27 00:24:44;;;;;;;18.42;10.07;;;9.40;85.30;;;;;;5034893;28;20025;-74
2021/03/27 00:27:15;;;;;;;21.77;10.77;;;9.40;84.70;;;;;;5026038;28;20045;-74
2021/03/27 00:29:47;;;;;;;16.08;9.95;;;9.30;85.10;;;;;;5034569;28;20046;-74
2021/03/27 00:32:22;;;;;;;17.52;10.00;;;9.20;85.50;;;;;;5035160;28;20049;-73
2021/03/27 00:34:55;;;;;;;14.93;10.38;;;9.20;85.70;;;;;;5035254;28;20033;-73
2021/03/27 00:37:25;;;;;;;11.68;8.45;;;9.20;86.70;;;;;;5034821;28;20358;-73
2021/03/27 00:40:06;;;;;;;12.80;8.20;;;9.40;86.10;;;;;;5034715;28;20040;-73
2021/03/27 00:42:42;;;;;;;11.65;8.40;;;9.60;85.50;;;;;;5033597;28;20099;-73
2021/03/27 00:45:23;;;;;;;11.82;7.68;;;9.70;85.20;;;;;;5033909;28;20478;-73
2021/03/27 00:48:02;;;;;;;10.15;7.30;;;9.80;85.10;;;;;;5034080;28;20025;-75
2021/03/27 00:50:38;;;;;;;8.73;7.10;;;10.00;84.10;;;;;;5032440;28;20049;-73
2021/03/27 00:53:16;;;;;;;10.05;7.30;;;10.00;83.80;;;;;;5037710;28;20103;-73
2021/03/27 00:55:53;;;;;;;10.10;7.60;;;10.10;83.90;;;;;;5034701;28;20041;-74
2021/03/27 00:58:59;;;;;;;11.98;7.38;;;10.10;83.90;;;;;;5034100;28;20041;-74
2021/03/27 01:01:37;;;;;;;13.10;6.55;;;10.10;84.10;;;;;;5044705;28;20037;-74
2021/03/27 01:04:31;;;;;;;9.70;6.63;;;10.20;83.80;;;;;;5005382;28;20037;-75
2021/03/27 01:07:19;;;;;;;10.82;7.35;;;10.20;83.70;;;;;;5040827;28;20044;-74
2021/03/27 01:10:21;;;;;;;11.90;6.53;;;10.30;83.50;;;;;;5033937;28;20052;-74
2021/03/27 01:13:14;;;;;;;11.45;7.60;;;10.30;83.70;;;;;;5033681;28;20045;-73
2021/03/27 01:15:46;;;;;;;11.70;7.25;;;10.30;83.50;;;;;;5046511;28;20041;-72
2021/03/27 01:18:19;;;;;;;11.27;7.25;;;10.40;83.50;;;;;;5032925;28;20052;-73
2021/03/27 01:20:53;;;;;;;16.05;8.25;;;10.40;83.30;;;;;;5047876;28;20046;-73
2021/03/27 01:23:20;;;;;;;10.52;7.70;;;10.40;83.30;;;;;;5047628;28;20470;-74
2021/03/27 01:25:47;;;;;;;10.55;6.85;;;10.40;83.50;;;;;;5033523;28;20056;-73
2021/03/27 01:28:27;;;;;;;11.50;7.28;;;10.50;83.30;;;;;;5033625;28;20033;-73
2021/03/27 01:30:53;;;;;;;11.13;6.90;;;10.50;83.20;;;;;;5033510;28;20052;-73
2021/03/27 01:33:29;;;;;;;10.68;6.85;;;10.50;83.10;;;;;;5033563;28;20040;-73
2021/03/27 01:36:16;;;;;;;8.23;5.60;;;10.50;82.40;;;;;;5032795;28;20037;-74
2021/03/27 01:38:55;;;;;;;9.85;6.82;;;10.60;82.30;;;;;;5034144;28;20052;-74
2021/03/27 01:41:38;;;;;;;8.98;6.18;;;10.80;81.40;;;;;;5043841;28;20029;-73
2021/03/27 01:44:11;;;;;;;9.48;6.68;;;10.80;81.10;;;;;;5033358;28;20064;-73
2021/03/27 01:47:00;;;;;;;12.20;7.10;;;10.80;81.20;;;;;;5032984;28;20028;-74
2021/03/27 01:49:45;;;;;;;9.80;7.45;;;10.70;81.10;;;;;;5033155;28;20470;-73
2021/03/27 01:52:35;;;;;;;10.23;6.70;;;10.80;80.90;;;;;;5033123;28;20033;-74
2021/03/27 01:55:26;;;;;;;11.27;7.10;;;10.80;81.20;;;;;;5032680;28;20049;-74
2021/03/27 01:58:10;;;;;;;9.90;6.90;;;10.70;81.40;;;;;;5032416;28;20033;-74
2021/03/27 02:01:11;;;;;;;12.85;7.30;;;10.70;81.80;;;;;;5032880;28;20052;-73
2021/03/27 02:03:46;;;;;;;12.05;7.90;;;10.60;81.90;;;;;;5032868;28;20355;-74
2021/03/27 02:06:22;;;;;;;10.32;7.78;;;10.60;82.30;;;;;;5032775;28;20038;-74
2021/03/27 02:09:23;;;;;;;12.55;8.45;;;10.60;82.10;;;;;;5032441;28;20254;-74
2021/03/27 02:12:05;;;;;;;12.27;7.50;;;10.60;82.00;;;;;;5032255;28;20037;-75
2021/03/27 02:14:44;;;;;;;10.02;6.38;;;10.70;82.30;;;;;;5032519;28;20045;-74
2021/03/27 02:17:26;;;;;;;10.35;6.90;;;10.70;82.30;;;;;;5032699;28;20038;-74
2021/03/27 02:20:01;;;;;;;9.80;6.45;;;10.70;82.40;;;;;;5032828;28;20144;-74
2021/03/27 02:22:55;;;;;;;7.28;5.65;;;10.70;82.50;;;;;;5032999;28;20041;-74
2021/03/27 02:25:40;;;;;;;10.77;6.88;;;10.70;82.90;;;;;;5032777;28;20048;-74
2021/03/27 02:28:15;;;;;;;9.73;5.90;;;10.70;85.20;;;;;;5032217;28;20025;-74
2021/03/27 02:30:48;;;;;;;10.98;7.80;;;10.70;88.50;;;;;;5032795;28;20048;-73
2021/03/27 02:33:34;;;;;;;7.30;5.57;;;10.60;91.40;;;;;;5032360;28;20060;-73
2021/03/27 02:36:06;;;;;;;8.98;4.97;;;10.50;92.70;;;;;;5032292;28;20041;-74
2021/03/27 02:38:52;;;;;;;10.05;5.55;;;10.40;93.80;;;;;;5032045;28;20073;-74
2021/03/27 02:41:41;;;;;;;6.95;3.80;;;10.50;93.90;;;;;;5032497;28;20040;-74
2021/03/27 02:44:10;;;;;;;6.82;4.70;;;10.50;94.00;;;;;;5032435;28;20037;-74
2021/03/27 02:46:44;;;;;;;8.48;4.85;;;10.50;94.80;;;;;;5031685;28;20036;-74
2021/03/27 02:49:42;;;;;;;9.23;5.28;;;10.50;95.50;;;;;;5032219;28;20351;-72
2021/03/27 02:52:30;;;;;;;8.00;4.30;;;10.40;96.40;;;;;;5032244;28;20398;-72
2021/03/27 02:55:12;;;;;;;7.28;4.50;;;10.40;96.90;;;;;;5031857;28;20049;-74
2021/03/27 02:58:08;;;;;;;7.80;5.32;;;10.40;97.20;;;;;;5032008;28;20044;-73
2021/03/27 03:01:02;;;;;;;9.15;4.75;;;10.30;98.00;;;;;;5031935;28;20033;-73
2021/03/27 03:03:50;;;;;;;5.53;3.88;;;10.20;97.80;;;;;;5032295;28;20037;-73
2021/03/27 03:06:34;;;;;;;17.60;10.55;;;10.30;97.50;;;;;;5032132;28;20347;-73
2021/03/27 03:09:06;;;;;;;11.20;6.75;;;10.20;96.80;;;;;;5031434;28;20346;-73
2021/03/27 03:11:49;;;;;;;8.07;4.03;;;10.10;96.50;;;;;;5030885;28;20045;-71
2021/03/27 03:14:34;;;;;;;4.40;3.08;;;10.10;95.60;;;;;;5031921;28;20050;-73
2021/03/27 03:17:24;;;;;;;4.72;3.17;;;10.00;95.20;;;;;;5032457;28;20037;-73
2021/03/27 03:19:52;;;;;;;4.43;2.28;;;10.10;93.80;;;;;;5031793;28;20589;-73
2021/03/27 03:22:22;;;;;;;7.15;2.88;;;10.20;91.80;;;;;;5031913;28;20033;-72
2021/03/27 03:24:59;;;;;;;3.15;1.65;;;10.20;90.20;;;;;;5031963;28;20036;-73
2021/03/27 03:27:58;;;;;;;3.25;0.95;;;10.20;85.50;;;;;;5031480;28;20037;-73
2021/03/27 03:30:53;;;;;;;1.85;0.80;;;10.30;80.90;;;;;;5031796;28;20041;-73
2021/03/27 03:33:38;;;;;;;1.90;1.23;;;10.30;79.50;;;;;;5010973;28;20549;-72
2021/03/27 03:36:10;;;;;;;2.35;0.90;;;10.20;80.70;;;;;;5031527;28;20093;-72
2021/03/27 03:39:10;;;;;;;3.60;0.93;;;10.20;77.80;;;;;;5031471;28;20037;-74
2021/03/27 03:41:50;;;;;;;1.05;0.55;;;10.20;77.30;;;;;;5032030;28;20390;-74
2021/03/27 03:44:38;;;;;;;0.95;0.57;;;10.00;76.40;;;;;;5044650;28;20025;-73
2021/03/27 03:47:28;;;;;;;1.55;0.68;;;10.00;75.80;;;;;;5032085;28;20352;-73
2021/03/27 03:50:45;;;;;;;2.38;0.55;;;9.90;76.70;;;;;;5031283;28;20050;-72
2021/03/27 03:53:48;;;;;;;3.25;1.02;;;9.90;76.80;;;;;;5021654;28;20171;-73
2021/03/27 03:56:21;;;;;;;1.65;0.60;;;9.90;77.10;;;;;;4992307;28;20042;-73
2021/03/27 03:59:15;;;;;;;5.50;1.75;;;9.80;78.80;;;;;;4991394;28;20042;-73
2021/03/27 04:01:55;;;;;;;5.22;1.33;;;9.70;78.20;;;;;;4991985;28;20046;-72
2021/03/27 04:04:26;;;;;;;9.18;2.20;;;9.60;78.80;;;;;;4992146;28;20038;-73
2021/03/27 04:06:57;;;;;;;;;;;9.50;79.10;;;;;;4992315;28;20028;-73
2021/03/27 04:09:29;;;;;;;1.80;0.52;;;9.40;79.20;;;;;;4992302;28;19933;-73
2021/03/27 04:12:02;;;;;;;2.58;0.65;;;9.30;80.20;;;;;;4991425;28;20042;-73
2021/03/27 04:14:31;;;;;;;2.65;0.65;;;9.20;80.70;;;;;;4992562;28;20043;-72
2021/03/27 04:17:30;;;;;;;3.17;1.10;;;9.10;81.10;;;;;;4992044;28;20030;-74
2021/03/27 04:20:18;;;;;;;2.85;1.10;;;8.90;82.30;;;;;;4968253;28;20051;-74
2021/03/27 04:23:10;;;;;;;6.38;2.47;;;8.80;82.40;;;;;;4995229;28;20033;-75
2021/03/27 04:25:47;;;;;;;4.70;1.23;;;8.70;83.60;;;;;;4995171;28;20102;-74
2021/03/27 04:28:47;;;;;;;2.58;1.17;;;8.70;84.00;;;;;;4995204;28;20041;-74
2021/03/27 04:31:47;;;;;;;2.20;0.82;;;8.60;82.60;;;;;;4995731;28;20046;-74
2021/03/27 04:34:33;;;;;;;6.00;1.42;;;8.50;81.60;;;;;;4995187;28;20484;-73
2021/03/27 04:37:08;;;;;;;1.77;0.77;;;8.50;81.40;;;;;;5014840;28;20364;-72
2021/03/27 04:39:40;;;;;;;2.50;0.73;;;8.40;80.00;;;;;;4996346;28;20476;-73
2021/03/27 04:42:16;;;;;;;2.97;0.98;;;8.40;79.40;;;;;;4995258;28;20141;-73
2021/03/27 04:44:59;;;;;;;3.42;1.50;;;8.30;79.60;;;;;;4994671;28;20038;-73
2021/03/27 04:47:37;;;;;;;4.60;2.08;;;8.20;79.10;;;;;;4995441;28;20046;-73
2021/03/27 04:50:09;;;;;;;3.88;1.58;;;8.10;78.90;;;;;;4995198;28;20515;-73
2021/03/27 04:52:41;;;;;;;3.85;0.77;;;8.00;79.90;;;;;;4994109;28;20039;-74
2021/03/27 04:55:30;;;;;;;4.30;1.40;;;7.90;79.40;;;;;;5016378;28;20042;-73
2021/03/27 04:58:14;;;;;;;3.20;0.60;;;7.80;79.80;;;;;;5033658;28;20509;-73
2021/03/27 05:00:52;;;;;;;2.58;0.70;;;7.70;79.10;;;;;;5033925;28;20037;-73
2021/03/27 05:03:56;;;;;;;4.28;1.20;;;7.80;79.60;;;;;;5034210;28;20040;-74
2021/03/27 05:06:37;;;;;;;1.23;0.50;;;7.70;80.40;;;;;;5024636;28;20050;-73
2021/03/27 05:09:28;;;;;;;2.20;1.00;;;7.60;81.00;;;;;;5033676;28;20052;-74
2021/03/27 05:11:58;;;;;;;3.42;1.10;;;7.50;81.00;;;;;;5033799;28;20375;-74
2021/03/27 05:15:03;;;;;;;4.75;1.92;;;7.50;81.20;;;;;;5033458;28;20049;-74
2021/03/27 05:17:47;;;;;;;1.88;0.50;;;7.40;82.20;;;;;;5033982;28;20030;-73
2021/03/27 05:20:28;;;;;;;1.20;0.93;;;7.30;82.10;;;;;;5033631;28;20045;-73
2021/03/27 05:22:57;;;;;;;;;;;7.30;81.30;;;;;;5033809;28;20033;-73
2021/03/27 05:25:44;;;;;;;1.17;0.20;;;7.20;81.80;;;;;;5033896;28;20384;-73
2021/03/27 05:28:47;;;;;;;0.68;0.47;;;7.30;81.40;;;;;;5033694;28;20095;-74
2021/03/27 05:31:26;;;;;;;1.48;0.43;;;7.30;80.80;;;;;;5033488;28;20045;-74
2021/03/27 05:33:52;;;;;;;1.25;0.77;;;7.30;80.60;;;;;;5033193;28;20241;-73
2021/03/27 05:36:46;;;;;;;2.72;0.47;;;7.30;80.50;;;;;;5033685;28;20370;-73
2021/03/27 05:39:22;;;;;;;1.67;0.70;;;7.30;80.70;;;;;;5033632;28;20470;-73
2021/03/27 05:42:06;;;;;;;2.15;0.70;;;7.40;81.00;;;;;;5033182;28;20030;-74
2021/03/27 05:44:54;;;;;;;1.30;0.75;;;7.50;80.30;;;;;;5033173;28;20029;-75
2021/03/27 05:47:57;;;;;;;3.40;1.10;;;7.50;80.20;;;;;;5033362;28;20056;-74
2021/03/27 05:50:36;;;;;;;1.67;0.90;;;7.50;79.80;;;;;;5033415;28;20076;-74
2021/03/27 05:53:26;;;;;;;1.38;0.60;;;7.60;79.90;;;;;;5033190;28;20037;-74
2021/03/27 05:56:28;;;;;;;4.50;0.67;;;7.50;79.60;;;;;;5032598;28;20497;-74
2021/03/27 05:59:25;;;;;;;3.03;0.90;;;7.50;77.80;;;;;;5032796;28;20056;-74
2021/03/27 06:02:04;;;;;;;4.72;0.70;;;7.40;76.60;;;;;;5032804;28;20033;-74
2021/03/27 06:04:39;;;;;;;2.03;0.80;;;7.60;75.80;;;;;;5031735;28;20045;-74
2021/03/27 06:07:26;;;;;;;2.60;0.80;;;8.10;74.50;;;;;;5033013;28;20383;-73
2021/03/27 06:10:10;;;;;;;1.77;0.55;;;8.10;72.90;;;;;;5032494;28;20486;-73
2021/03/27 06:13:01;;;;;;;2.05;0.65;;;7.80;73.10;;;;;;5031865;28;20060;-73
2021/03/27 06:15:45;;;;;;;3.33;1.88;;;7.50;73.00;;;;;;5039524;28;20054;-74
2021/03/27 06:18:50;;;;;;;2.30;1.38;;;7.50;74.30;;;;;;5038590;28;20025;-74
2021/03/27 06:21:53;;;;;;;2.55;1.40;;;7.50;74.90;;;;;;5042948;28;20482;-74
2021/03/27 06:24:28;;;;;;;2.38;1.35;;;7.50;75.60;;;;;;5044362;28;20044;-74
2021/03/27 06:27:21;;;;;;;3.50;1.73;;;7.50;74.90;;;;;;5047449;28;20045;-74
2021/03/27 06:30:08;;;;;;;3.90;2.05;;;7.60;75.50;;;;;;5046040;28;20045;-73
2021/03/27 06:33:10;;;;;;;6.13;2.80;;;7.60;75.40;;;;;;5049123;28;20045;-74
2021/03/27 06:36:06;;;;;;;5.60;2.47;;;7.60;75.80;;;;;;5044793;28;20039;-74
2021/03/27 06:38:41;;;;;;;4.97;2.90;;;7.50;76.20;;;;;;5036540;28;20040;-75
2021/03/27 06:41:50;;;;;;;4.45;2.35;;;7.50;75.80;;;;;;5043928;28;20370;-75
2021/03/27 06:44:35;;;;;;;4.00;2.70;;;7.60;75.00;;;;;;5046224;28;20382;-74
2021/03/27 06:47:22;;;;;;;5.15;1.80;;;7.70;74.70;;;;;;5041160;28;20397;-75
2021/03/27 06:50:42;;;;;;;3.58;1.65;;;8.10;71.40;;;;;;5043646;28;20049;-74
2021/03/27 06:53:41;;;;;;;7.75;1.50;;;8.20;70.20;;;;;;4999395;28;20360;-74
2021/03/27 06:56:13;;;;;;;2.42;1.83;;;8.40;68.50;;;;;;5047573;28;20049;-78
2021/03/27 06:58:48;;;;;;;5.13;1.23;;;8.60;67.10;;;;;;5032018;28;20044;-74
2021/03/27 07:01:38;;;;;;;2.65;0.90;;;9.20;66.60;;;;;;5032334;28;20038;-79
2021/03/27 07:04:42;;;;;;;3.03;1.02;;;9.30;64.40;;;;;;5032622;28;20029;-79
2021/03/27 07:07:29;;;;;;;4.45;1.27;;;10.20;63.60;;;;;;5032325;28;20052;-74
2021/03/27 07:10:04;;;;;;;4.65;0.90;;;10.80;60.60;;;;;;5031819;28;20037;-75
2021/03/27 07:12:46;;;;;;;4.25;0.95;;;11.00;60.20;;;;;;5031945;28;20034;-72
2021/03/27 07:15:18;;;;;;;10.40;4.40;;;11.70;59.10;;;;;;5034304;28;20386;-73
2021/03/27 07:18:02;;;;;;;5.32;1.75;;;10.80;59.90;;;;;;5042226;28;20412;-73
2021/03/27 07:20:37;;;;;;;53.58;24.58;;;10.10;60.90;;;;;;5033960;28;20034;-76
2021/03/27 07:23:35;;;;;;;42.13;19.00;;;10.90;59.60;;;;;;5031595;28;20360;-74
2021/03/27 07:26:41;;;;;;;5.82;1.88;;;12.00;57.80;;;;;;5032015;28;20037;-74
2021/03/27 07:29:31;;;;;;;8.18;2.22;;;12.10;55.00;;;;;;5031927;28;20386;-74
2021/03/27 07:32:31;;;;;;;24.92;11.60;;;11.30;56.80;;;;;;5036097;28;20064;-75
2021/03/27 07:35:22;;;;;;;4.63;1.02;;;11.30;56.10;;;;;;5045130;28;20056;-74
2021/03/27 07:38:07;;;;;;;5.03;1.50;;;11.20;56.60;;;;;;5032621;28;20036;-75
2021/03/27 07:40:40;;;;;;;26.05;11.23;;;11.30;56.20;;;;;;5031440;28;20387;-74
2021/03/27 07:43:30;;;;;;;6.88;3.67;;;11.00;55.70;;;;;;5032415;28;20029;-74
2021/03/27 07:46:05;;;;;;;5.80;1.43;;;10.20;56.50;;;;;;5035175;28;20040;-74
2021/03/27 07:48:53;;;;;;;3.70;1.73;;;9.60;57.50;;;;;;5031738;28;20044;-73
2021/03/27 07:51:37;;;;;;;4.97;1.08;;;9.20;58.80;;;;;;5031693;28;20037;-74
2021/03/27 07:54:36;;;;;;;5.80;1.33;;;9.10;58.90;;;;;;5031390;28;20381;-73
2021/03/27 07:57:26;;;;;;;3.80;1.38;;;8.70;60.10;;;;;;5035181;28;20421;-73
2021/03/27 08:00:34;;;;;;;3.92;0.70;;;8.70;61.70;;;;;;5035028;28;20037;-73
2021/03/27 08:03:42;;;;;;;5.25;1.02;;;8.80;59.90;;;;;;5036407;28;20029;-73
2021/03/27 08:06:20;;;;;;;3.08;0.90;;;8.80;60.50;;;;;;5029537;28;20042;-74
2021/03/27 08:09:13;;;;;;;3.67;0.93;;;8.60;60.30;;;;;;5040463;28;20033;-73
2021/03/27 08:12:17;;;;;;;5.75;1.05;;;8.60;61.00;;;;;;5038304;28;20043;-72
2021/03/27 08:14:58;;;;;;;5.55;1.00;;;8.80;61.70;;;;;;5051007;28;20053;-73
2021/03/27 08:17:32;;;;;;;;;;;10.70;57.90;;;;;;5040510;28;20029;-73
2021/03/27 08:20:23;;;;;;;4.78;0.70;;;11.60;54.50;;;;;;5047826;28;19912;-73
2021/03/27 08:23:01;;;;;;;;;;;11.10;54.00;;;;;;5034765;28;20148;-72
2021/03/27 08:25:59;;;;;;;2.85;0.60;;;11.20;54.60;;;;;;5036647;28;19913;-73
2021/03/27 08:28:49;;;;;;;5.18;0.73;;;11.00;54.20;;;;;;5051619;28;20056;-72
2021/03/27 08:32:09;;;;;;;8.48;1.20;;;10.50;54.40;;;;;;5047510;28;20033;-72
2021/03/27 08:35:13;;;;;;;4.27;0.90;;;10.70;55.30;;;;;;5010556;28;20044;-73
2021/03/27 08:38:27;;;;;;;2.25;0.70;;;11.10;54.20;;;;;;5035105;28;20761;-73
2021/03/27 08:41:08;;;;;;;4.88;1.00;;;11.70;54.10;;;;;;5035730;28;20026;-73
2021/03/27 08:43:56;;;;;;;3.80;0.93;;;11.50;54.10;;;;;;5048517;28;20040;-72
2021/03/27 08:46:53;;;;;;;3.20;0.85;;;11.70;54.30;;;;;;5047092;28;20104;-74
2021/03/27 08:49:37;;;;;;;5.50;0.82;;;12.20;54.20;;;;;;5047914;28;20037;-74
2021/03/27 08:52:22;;;;;;;2.88;0.90;;;11.40;54.10;;;;;;5040015;28;20056;-74
2021/03/27 08:55:10;;;;;;;2.80;0.60;;;11.30;53.40;;;;;;5034480;28;20045;-74
2021/03/27 08:58:02;;;;;;;3.55;0.68;;;11.90;53.10;;;;;;5043298;28;20044;-73
2021/03/27 09:00:59;;;;;;;5.40;0.85;;;11.40;54.00;;;;;;5035108;28;20034;-73
2021/03/27 09:03:52;;;;;;;3.83;0.73;;;11.90;53.60;;;;;;5035381;28;20040;-73
2021/03/27 09:06:50;;;;;;;4.78;0.65;;;12.60;52.30;;;;;;5036064;28;20783;-74
2021/03/27 09:09:38;;;;;;;3.80;0.70;;;12.60;51.50;;;;;;5034017;28;20046;-74
2021/03/27 09:12:35;;;;;;;8.40;0.82;;;11.50;53.00;;;;;;5036110;28;20073;-74
2021/03/27 09:15:32;;;;;;;5.85;1.25;;;11.90;53.40;;;;;;5047385;28;20032;-74
2021/03/27 09:18:16;;;;;;;5.05;1.20;;;11.90;52.80;;;;;;5033156;28;20057;-73
2021/03/27 09:21:19;;;;;;;4.72;0.73;;;13.00;51.00;;;;;;5036881;28;20029;-74
2021/03/27 09:23:54;;;;;;;6.72;2.15;;;12.80;50.00;;;;;;5042487;28;20028;-75
2021/03/27 09:26:41;;;;;;;2.75;0.68;;;13.20;51.30;;;;;;5035460;28;20037;-75
2021/03/27 09:29:32;;;;;;;4.40;0.95;;;12.70;51.30;;;;;;5033314;28;20386;-75
2021/03/27 09:32:06;;;;;;;2.72;0.52;;;12.20;51.90;;;;;;5040452;28;20673;-74
2021/03/27 09:34:51;;;;;;;4.13;1.13;;;12.20;51.30;;;;;;5050398;28;20032;-74
2021/03/27 09:37:47;;;;;;;8.93;1.75;;;12.30;51.50;;;;;;5037565;28;20028;-74
2021/03/27 09:40:16;;;;;;;5.07;0.68;;;12.50;51.00;;;;;;5039156;28;20378;-74
2021/03/27 09:43:01;;;;;;;5.65;1.27;;;13.00;50.80;;;;;;5043166;28;20096;-74
2021/03/27 09:45:33;;;;;;;4.55;0.80;;;13.30;49.50;;;;;;5033901;28;20374;-74
2021/03/27 09:48:38;;;;;;;6.53;2.50;;;13.70;48.80;;;;;;5033405;28;20386;-74
2021/03/27 09:51:31;;;;;;;5.28;1.05;;;13.90;49.30;;;;;;4999694;28;20056;-75
2021/03/27 09:54:26;;;;;;;4.88;1.15;;;13.70;48.80;;;;;;5036020;28;20025;-75
2021/03/27 09:57:01;;;;;;;5.60;1.30;;;14.40;47.80;;;;;;5047181;28;20037;-75
2021/03/27 09:59:37;;;;;;;3.65;0.93;;;13.70;48.00;;;;;;5042276;28;20033;-75
2021/03/27 10:02:29;;;;;;;4.15;0.80;;;13.60;48.40;;;;;;5042140;28;20481;-75
2021/03/27 10:05:19;;;;;;;1.70;0.65;;;14.10;47.30;;;;;;5033436;28;20026;-75
2021/03/27 10:08:09;;;;;;;4.82;0.75;;;13.10;48.00;;;;;;5041316;28;20040;-76
2021/03/27 10:10:50;;;;;;;4.07;0.98;;;13.00;49.30;;;;;;5034359;28;20505;-75
2021/03/27 10:13:19;;;;;;;4.50;1.08;;;12.50;49.20;;;;;;5033662;28;20042;-74
2021/03/27 10:15:55;;;;;;;7.40;1.33;;;12.20;49.60;;;;;;5032311;28;20057;-75
2021/03/27 10:18:36;;;;;;;8.35;1.13;;;12.00;49.10;;;;;;5041431;28;20039;-77
2021/03/27 10:21:21;;;;;;;5.07;0.93;;;11.70;50.00;;;;;;5039598;28;20091;-75
2021/03/27 10:24:03;;;;;;;5.32;0.80;;;11.80;50.30;;;;;;5033331;28;20037;-75
2021/03/27 10:26:57;;;;;;;4.43;1.20;;;11.70;50.40;;;;;;5038976;28;20040;-75
2021/03/27 10:29:41;;;;;;;5.18;0.93;;;11.60;50.50;;;;;;5034446;28;20033;-75
2021/03/27 10:32:25;;;;;;;7.43;2.05;;;11.90;50.10;;;;;;5043842;28;20033;-75
2021/03/27 10:35:04;;;;;;;3.78;0.93;;;11.90;50.30;;;;;;5034973;28;20040;-76
2021/03/27 10:37:49;;;;;;;4.55;0.93;;;11.60;50.70;;;;;;5046933;28;20032;-75
2021/03/27 10:40:45;;;;;;;8.65;2.78;;;11.20;50.90;;;;;;5046514;28;20038;-76
2021/03/27 10:43:48;;;;;;;7.00;1.45;;;11.20;51.20;;;;;;5042143;28;20037;-74
2021/03/27 10:46:33;;;;;;;6.72;0.70;;;11.20;51.20;;;;;;5032036;28;20470;-75
2021/03/27 10:49:28;;;;;;;6.68;0.82;;;11.00;51.00;;;;;;5036805;28;20474;-74
2021/03/27 10:51:54;;;;;;;7.38;1.80;;;10.50;52.00;;;;;;5032765;28;20053;-75
2021/03/27 10:54:53;;;;;;;5.65;1.55;;;10.50;52.40;;;;;;5031966;28;20064;-73
2021/03/27 10:57:22;;;;;;;6.35;1.35;;;10.20;55.50;;;;;;5031849;28;20037;-75
2021/03/27 11:00:02;;;;;;;6.28;1.23;;;10.00;57.30;;;;;;5031971;28;20459;-74
2021/03/27 11:03:12;;;;;;;6.65;1.10;;;10.00;57.20;;;;;;5032210;28;20037;-74
2021/03/27 11:06:08;;;;;;;8.18;1.02;;;9.80;58.50;;;;;;4951966;29;20050;-75
2021/03/27 11:09:01;;;;;;;3.08;0.90;;;9.90;58.70;;;;;;4942172;29;20043;-74
2021/03/27 11:11:34;;;;;;;4.50;0.90;;;10.10;59.00;;;;;;5019053;28;20045;-75
2021/03/27 11:14:45;;;;;;;5.88;1.00;;;10.00;59.80;;;;;;5031778;28;20265;-75
2021/03/27 11:17:17;;;;;;;4.07;0.90;;;10.00;61.30;;;;;;5031585;28;20042;-76
2021/03/27 11:20:14;;;;;;;5.35;1.10;;;9.70;62.60;;;;;;5031311;28;20045;-75
2021/03/27 11:23:18;;;;;;;3.13;1.00;;;9.60;63.40;;;;;;5045340;28;20051;-75
2021/03/27 11:26:14;;;;;;;4.00;1.20;;;9.10;65.90;;;;;;5031163;28;20037;-75
2021/03/27 11:28:47;;;;;;;4.78;1.30;;;8.90;69.90;;;;;;5037071;28;20025;-75
2021/03/27 11:31:27;;;;;;;7.85;2.00;;;8.80;73.10;;;;;;5046676;28;20386;-75
2021/03/27 11:34:12;;;;;;;6.53;2.53;;;8.50;76.60;;;;;;5035725;28;20037;-75
2021/03/27 11:37:04;;;;;;;6.75;1.88;;;8.90;76.70;;;;;;5035863;28;20036;-75
2021/03/27 11:39:54;;;;;;;6.32;1.70;;;9.20;76.40;;;;;;5036074;28;20033;-75
2021/03/27 11:42:56;;;;;;;2.85;0.98;;;9.50;74.30;;;;;;5035766;28;20403;-75
2021/03/27 11:45:31;;;;;;;6.10;1.33;;;9.70;67.60;;;;;;5026095;28;20038;-75
2021/03/27 11:48:19;;;;;;;3.92;0.88;;;10.20;65.10;;;;;;5037171;28;20030;-75
2021/03/27 11:51:07;;;;;;;5.28;0.77;;;10.50;61.90;;;;;;5034615;28;20034;-76
2021/03/27 11:53:49;;;;;;;3.55;0.60;;;10.70;62.80;;;;;;5036681;28;20045;-76
2021/03/27 11:56:39;;;;;;;5.28;0.77;;;10.80;60.20;;;;;;5035654;28;20048;-76
2021/03/27 12:02:52;;;;;;;4.30;1.00;;;10.80;61.00;;;;;;5036042;28;20057;-76
2021/03/27 12:05:34;;;;;;;3.47;0.98;;;10.80;61.50;;;;;;5035584;28;20056;-75
2021/03/27 12:08:03;;;;;;;4.57;1.08;;;11.00;61.00;;;;;;5038755;28;20036;-76
2021/03/27 12:11:01;;;;;;;7.55;1.63;;;10.70;60.70;;;;;;5036137;28;20056;-75
2021/03/27 12:14:08;;;;;;;6.03;0.85;;;10.10;61.30;;;;;;5030260;28;20049;-74
2021/03/27 12:16:49;;;;;;;5.45;1.20;;;10.40;61.20;;;;;;5033746;28;20041;-75
2021/03/27 12:19:31;;;;;;;7.03;1.00;;;10.60;60.50;;;;;;5035227;28;20033;-76
2021/03/27 12:22:05;;;;;;;7.00;1.52;;;11.00;59.10;;;;;;5034633;28;20052;-76
2021/03/27 12:24:52;;;;;;;3.90;0.82;;;11.10;58.10;;;;;;5035246;28;20040;-79
2021/03/27 12:27:36;;;;;;;5.63;1.23;;;11.50;58.20;;;;;;5035213;28;20037;-79
2021/03/27 12:30:20;;;;;;;3.72;1.08;;;11.90;57.10;;;;;;5034654;28;20029;-79
2021/03/27 12:33:00;;;;;;;3.00;0.90;;;11.90;57.20;;;;;;5034473;28;20042;-78
2021/03/27 12:35:36;;;;;;;2.78;0.70;;;12.20;56.00;;;;;;5034044;28;20398;-78
2021/03/27 12:38:11;;;;;;;2.90;0.90;;;12.50;55.50;;;;;;5034506;28;20026;-79
2021/03/27 12:40:59;;;;;;;7.07;1.17;;;12.50;55.30;;;;;;5034535;28;20041;-79
2021/03/27 12:43:30;;;;;;;3.72;1.05;;;12.20;55.50;;;;;;5054415;28;20032;-79
2021/03/27 12:46:09;;;;;;;4.03;0.88;;;12.00;55.80;;;;;;5043752;28;20040;-79
2021/03/27 12:49:12;;;;;;;3.55;0.88;;;11.80;55.50;;;;;;5045945;28;20044;-79
2021/03/27 12:52:13;;;;;;;4.03;0.80;;;12.00;54.60;;;;;;5035914;28;20049;-79
2021/03/27 12:55:11;;;;;;;3.67;1.00;;;12.20;54.90;;;;;;5034296;28;20044;-79
2021/03/27 12:57:54;;;;;;;3.92;0.98;;;12.50;51.70;;;;;;5033824;28;20049;-78
2021/03/27 13:00:42;;;;;;;2.15;0.60;;;12.30;52.20;;;;;;5036546;28;20036;-78
2021/03/27 13:03:46;;;;;;;8.38;1.77;;;12.00;52.00;;;;;;5035104;28;20037;-77
2021/03/27 13:06:21;;;;;;;3.47;0.68;;;12.20;52.70;;;;;;5035721;28;20049;-80
2021/03/27 13:08:58;;;;;;;6.43;0.90;;;11.90;52.80;;;;;;5045494;28;20032;-73
2021/03/27 13:11:30;;;;;;;5.07;1.13;;;11.80;52.50;;;;;;5045485;28;20033;-72
2021/03/27 13:14:18;;;;;;;1.88;0.60;;;11.90;52.90;;;;;;5040282;28;20029;-73
2021/03/27 13:16:47;;;;;;;3.65;0.75;;;12.50;52.00;;;;;;5034033;28;20041;-73
2021/03/27 13:19:52;;;;;;;3.47;0.70;;;12.80;52.50;;;;;;5034167;28;20030;-81
2021/03/27 13:22:27;;;;;;;5.40;0.70;;;12.50;52.20;;;;;;5033079;28;20037;-77
2021/03/27 13:25:16;;;;;;;4.05;1.05;;;12.30;53.10;;;;;;5033773;28;20041;-78
2021/03/27 13:28:01;;;;;;;3.80;1.50;;;12.10;52.70;;;;;;5038355;28;20050;-76
2021/03/27 13:30:43;;;;;;;3.75;1.00;;;11.40;53.20;;;;;;5043504;28;20032;-76
2021/03/27 13:33:10;;;;;;;6.30;1.20;;;11.20;53.70;;;;;;5040495;28;20037;-77
2021/03/27 13:35:51;;;;;;;4.43;1.15;;;11.50;53.40;;;;;;5040718;28;20037;-77
2021/03/27 13:38:27;;;;;;;3.13;1.00;;;11.90;53.30;;;;;;5036763;28;20037;-77
2021/03/27 13:40:57;;;;;;;5.20;1.55;;;11.70;53.40;;;;;;5037357;28;20030;-77
2021/03/27 13:43:41;;;;;;;4.93;0.98;;;12.20;53.20;;;;;;5045414;28;20045;-78
2021/03/27 13:46:29;;;;;;;11.15;1.15;;;12.20;52.30;;;;;;5037803;28;20048;-78
2021/03/27 13:49:02;;;;;;;5.18;0.90;;;12.10;52.30;;;;;;5047521;28;20044;-77
2021/03/27 13:51:42;;;;;;;5.10;1.50;;;11.50;53.10;;;;;;5038531;28;20025;-77
2021/03/27 13:54:11;;;;;;;3.22;0.80;;;11.20;54.10;;;;;;5043415;28;20056;-77
2021/03/27 13:56:59;;;;;;;5.57;0.82;;;11.20;54.50;;;;;;5049069;28;20029;-77
2021/03/27 13:59:47;;;;;;;6.15;1.42;;;11.20;55.30;;;;;;5047568;28;20029;-78
2021/03/27 14:02:31;;;;;;;4.97;1.30;;;11.10;55.20;;;;;;5033612;28;20037;-77
2021/03/27 14:05:26;;;;;;;10.23;1.98;;;10.60;58.30;;;;;;5047784;28;20036;-77
2021/03/27 14:08:13;;;;;;;6.53;1.92;;;9.40;70.10;;;;;;5032989;28;20513;-77
2021/03/27 14:10:48;;;;;;;5.32;1.45;;;9.20;72.60;;;;;;5032673;28;20516;-76
2021/03/27 14:13:35;;;;;;;4.53;1.52;;;8.90;75.90;;;;;;5032489;28;20049;-76
2021/03/27 14:16:23;;;;;;;7.88;1.42;;;8.40;78.70;;;;;;5050016;28;20045;-74
2021/03/27 14:19:23;;;;;;;8.45;1.40;;;8.20;84.70;;;;;;5038079;28;20030;-75
2021/03/27 14:22:27;;;;;;;6.07;1.77;;;8.30;89.10;;;;;;5044337;28;20049;-75
2021/03/27 14:25:16;;;;;;;6.90;1.35;;;8.40;90.90;;;;;;5031652;28;20455;-75
2021/03/27 14:28:17;;;;;;;5.95;2.45;;;8.40;86.90;;;;;;5028859;28;20052;-74